ADDS METAR Data INFO
IDs: Format: Raw Decoded Include TAF

Data at: 0318 UTC 20 Jul 2018

KY49 200255Z AUTO 00000KT 7SM -RA SCT026 SCT043 OVC060 18/18 A2984 RMK AO2 LTG DSNT N 60001 T01770175
KY49 200235Z AUTO 36003KT 5SM +RA SCT026 SCT041 OVC060 18/18 A2983 RMK AO2 T01780175
KY49 200215Z AUTO 32003KT 10SM DZ BKN060 OVC080 18/18 A2982 RMK AO2 T01800175
KY49 200155Z AUTO 00000KT 10SM DZ OVC080 18/18 A2981 RMK AO2 P0001 T01800175
KY49 200135Z AUTO 02003KT 7SM RA OVC075 18/18 A2981 RMK AO2 T01810176
KY49 200110Z AUTO 01003KT 10SM DZ SCT041 OVC070 18/18 A2980 RMK AO2 T01830178
KY49 200055Z AUTO 02004KT 10SM DZ SCT024 BKN041 OVC070 18/18 A2980 RMK AO2 T01830180
KY49 200035Z AUTO 01006KT 10SM RA SCT022 BKN028 OVC034 18/18 A2980 RMK AO2 T01840179
KY49 200015Z AUTO 02006KT 10SM -RA SCT027 BKN037 OVC070 19/18 A2980 RMK AO2 T01870182
KY49 192355Z AUTO 02003KT 7SM -RA SCT027 SCT037 OVC070 19/18 A2981 RMK AO2 60003 T01870182 10239 20186
KY49 192335Z AUTO 36004KT 10SM -RA SCT029 OVC060 19/18 A2981 RMK AO2 T01860180
KY49 192315Z AUTO 36003KT 7SM RA SCT060 BKN075 OVC080 19/18 A2981 RMK AO2 T01880180
KY49 192254Z AUTO 36003KT 10SM SCT070 BKN085 OVC110 19/18 A2981 RMK AO2 P0001
KY49 192235Z AUTO 34005KT 10SM -DZ SCT046 BKN070 OVC095 19/19 A2981 RMK AO2 P0001 T01920185
KY49 192215Z AUTO 32003KT 10SM DZ SCT035 BKN049 OVC090 19/18 A2981 RMK AO2 P0001 T01920183
KY49 192155Z AUTO 36003KT 10SM RA SCT031 BKN050 OVC080 19/18 A2981 RMK AO2 T01910180
KY49 192135Z AUTO 32007KT 10SM -RA SCT011 BKN050 OVC080 19/18 A2980 RMK AO2 T01890179
KY49 192115Z AUTO 00000KT 4SM RA BKN013 BKN025 OVC060 19/18 A2981 RMK AO2 T01880179
KY49 192055Z AUTO 02003KT 7SM RA SCT037 BKN055 OVC080 20/18 A2980 RMK AO2 LTG DSNT N P0002 60002 T01950184
KY49 192035Z AUTO 00000KT 10SM RA SCT036 BKN042 OVC080 20/18 A2980 RMK AO2 P0001 T02000182
KY49 192015Z AUTO 30005KT 7SM RA SCT033 SCT046 OVC090 20/19 A2979 RMK AO2 P0001 T02030185
KY49 191955Z AUTO 00000KT 10SM BKN100 21/18 A2980 RMK AO2 LTG DSNT NW T02070181
KY49 191935Z AUTO 27003KT 10SM SCT028 SCT039 BKN095 21/18 A2980 RMK AO2 LTG DSNT N AND NW T02050179
KY49 191915Z AUTO 23004KT 5SM -TSRA SCT026 BKN038 OVC120 20/18 A2981 RMK AO2 LTG DSNT N AND NW T02010176
KY49 191855Z AUTO 12004KT 10SM SCT030 BKN039 BKN065 23/17 A2980 RMK AO2 LTG DSNT N T02260169
KY49 191835Z AUTO 09005KT 10SM BKN032 BKN038 BKN065 24/18 A2981 RMK AO2 LTG DSNT N AND S T02350182
KY49 191815Z AUTO 09003KT 10SM SCT033 SCT120 24/18 A2981 RMK AO2 LTG DSNT N T02350183
KY49 191755Z AUTO 09004KT 10SM SCT120 24/19 A2981 RMK AO2 LTG DSNT N AND S T02390187 10239 20184
KY49 191735Z AUTO 10004KT 10SM SCT025 23/18 A2981 RMK AO2 T02330183
KY49 191710Z AUTO 08004KT 10SM SCT060 SCT070 23/19 A2981 RMK AO2 T02310187
KY49 191655Z AUTO 09004KT 10SM SCT060 SCT070 23/19 A2982 RMK AO2 T02310189
KY49 191635Z AUTO 08006KT 10SM SCT039 SCT050 SCT060 23/19 A2981 RMK AO2 T02300188
KY49 191615Z AUTO 07005KT 10SM SCT031 SCT039 23/19 A2981 RMK AO2 T02280187
KY49 191555Z AUTO 08004KT 10SM CLR 23/19 A2981 RMK AO2 T02260186
KY49 191535Z AUTO 07005KT 10SM CLR 23/19 A2981 RMK AO2 LTG DSNT N T02280189
KY49 191515Z AUTO 10003KT 10SM CLR 22/19 A2982 RMK AO2 LTG DSNT NW T02240185
KY49 191455Z AUTO 08005KT 10SM CLR 23/18 A2982 RMK AO2 T02290180
KY49 191435Z AUTO 10007KT 10SM CLR 22/18 A2983 RMK AO2 T02230177
KY49 191415Z AUTO 10004KT 10SM CLR 21/17 A2983 RMK AO2 T02130172
KY49 191355Z AUTO 11003KT 10SM CLR 21/17 A2984 RMK AO2 T02060170
KY49 191335Z AUTO 10004KT 10SM CLR 21/17 A2984 RMK AO2 T02070169
KY49 191315Z AUTO 10005KT 10SM SCT050 21/17 A2984 RMK AO2 T02050167
KY49 191255Z AUTO 11004KT 10SM BKN050 20/16 A2985 RMK AO2 T01960161
KY49 191235Z AUTO 13003KT 10SM SCT050 19/16 A2985 RMK AO2 T01850158
KY49 191215Z AUTO 13004KT 10SM SCT050 19/16 A2986 RMK AO2 T01850158
KY49 191155Z AUTO 13005KT 10SM SCT050 SCT060 19/16 A2986 RMK AO2 7//// T01850157 10197 20176
KY49 191135Z AUTO 12004KT 10SM BKN060 18/16 A2986 RMK AO2 T01820157
KY49 191115Z AUTO 12003KT 10SM BKN060 18/16 A2987 RMK AO2 T01780157
KY49 191055Z AUTO 11003KT 10SM SCT060 18/16 A2987 RMK AO2 LTG DSNT N T01760155
KY49 191035Z AUTO 13003KT 10SM CLR 18/16 A2988 RMK AO2 LTG DSNT S T01760155
KY49 191015Z AUTO 13004KT 10SM CLR 18/16 A2989 RMK AO2 T01790155
KY49 190955Z AUTO 13003KT 10SM CLR 18/16 A2988 RMK AO2 T01800158
KY49 190935Z AUTO 00000KT 10SM CLR 18/16 A2989 RMK AO2 T01800156
KY49 190915Z AUTO 12004KT 10SM CLR 18/16 A2989 RMK AO2 T01770155
KY49 190855Z AUTO 00000KT 10SM CLR 18/16 A2990 RMK AO2 T01780155
KY49 190835Z AUTO 15003KT 10SM CLR 19/15 A2990 RMK AO2 T01850154
KY49 190815Z AUTO 15005KT 10SM CLR 19/16 A2991 RMK AO2 T01870155
KY49 190755Z AUTO 16004KT 10SM CLR 19/16 A2991 RMK AO2 T01900156
KY49 190735Z AUTO 16004KT 10SM CLR 19/16 A2992 RMK AO2 T01900157
KY49 190715Z AUTO 16005KT 10SM CLR 19/16 A2992 RMK AO2 LTG DSNT S AND SW T01920160
KY49 190655Z AUTO 15004KT 10SM CLR 20/16 A2992 RMK AO2 T01950161
KY49 190635Z AUTO 16003KT 10SM CLR 20/16 A2993 RMK AO2 T01950163
KY49 190615Z AUTO 15005KT 10SM CLR 20/17 A2993 RMK AO2 T01960165
KY49 190555Z AUTO 15004KT 10SM CLR 20/17 A2993 RMK AO2 LTG DSNT N T01970169 10245 20196
KY49 190535Z AUTO 15003KT 10SM CLR 20/17 A2993 RMK AO2 LTG DSNT N T01970171
KY49 190515Z AUTO 14003KT 10SM CLR 20/17 A2994 RMK AO2 LTG DSNT S T01970172
KY49 190455Z AUTO 15004KT 10SM CLR 20/18 A2994 RMK AO2 T02000175
KY49 190435Z AUTO 16004KT 10SM CLR 20/18 A2994 RMK AO2 T02020175
KY49 190415Z AUTO 14004KT 10SM CLR 20/18 A2994 RMK AO2 T02020175
KY49 190355Z AUTO 14004KT 10SM CLR 20/17 A2995 RMK AO2 T02030173
KY49 190335Z AUTO 14003KT 10SM CLR 21/17 A2995 RMK AO2 T02050172
KY49 190315Z AUTO 15003KT 10SM CLR 21/17 A2995 RMK AO2 T02100172
KY49 190255Z AUTO 15004KT 10SM CLR 21/17 A2995 RMK AO2 T02120174
KY49 190235Z AUTO 15004KT 10SM CLR 22/18 A2995 RMK AO2 T02150175
KY49 190215Z AUTO 16004KT 10SM CLR 22/18 A2995 RMK AO2 T02180176
KY49 190155Z AUTO 15003KT 10SM CLR 22/18 A2996 RMK AO2 LTG DSNT S T02190179
KY49 190135Z AUTO 00000KT 10SM CLR 23/18 A2996 RMK AO2 T02270179
KY49 190115Z AUTO 16003KT 10SM CLR 23/18 A2996 RMK AO2 T02320179
KY49 190055Z AUTO 15004KT 10SM CLR 23/18 A2996 RMK AO2 T02340178
KY49 190035Z AUTO 15004KT 10SM CLR 23/18 A2998 RMK AO2 T02340177
KY49 190015Z AUTO 16004KT 10SM CLR 24/18 A2998 RMK AO2 T02410177
KY49 182355Z AUTO 18005KT 10SM CLR 25/18 A2998 RMK AO2 T02450177 10264 20241
KY49 182335Z AUTO 17005KT 10SM CLR 25/18 A2998 RMK AO2 T02460178
KY49 182315Z AUTO 16007KT 10SM CLR 25/18 A2998 RMK AO2 T02480175
KY49 182255Z AUTO 19005KT 10SM SCT048 25/17 A2999 RMK AO2 T02450172
KY49 182235Z AUTO 21008KT 10SM SCT040 BKN048 25/17 A2999 RMK AO2 T02480173
KY49 182215Z AUTO 20008KT 10SM SCT040 26/17 A3000 RMK AO2 T02560174
KY49 182155Z AUTO 16005KT 10SM CLR 26/17 A3000 RMK AO2 T02560166
KY49 182135Z AUTO 17005KT 10SM CLR 26/17 A3000 RMK AO2 T02600165
KY49 182115Z AUTO 18005KT 10SM SCT038 26/17 A3001 RMK AO2 T02590171
KY49 182055Z AUTO 19006KT 10SM SCT043 26/17 A3002 RMK AO2 T02550168
KY49 182035Z AUTO 19006KT 10SM SCT043 25/17 A3002 RMK AO2 T02540165
KY49 182015Z AUTO 18007KT 10SM BKN043 26/16 A3003 RMK AO2 T02580164
KY49 181955Z AUTO 20007KT 10SM BKN041 BKN047 26/17 A3003 RMK AO2 T02560167
KY49 181935Z AUTO 17006KT 10SM BKN040 26/17 A3003 RMK AO2 T02580166
KY49 181915Z AUTO 17005KT 10SM SCT040 25/16 A3004 RMK AO2 T02470163
KY49 181855Z AUTO 21004KT 10SM SCT040 25/16 A3004 RMK AO2 T02520161
KY49 181835Z AUTO 20003KT 10SM CLR 25/16 A3005 RMK AO2 T02480157
KY49 181815Z AUTO 19005G08KT 10SM CLR 25/15 A3005 RMK AO2 LTG DSNT N T02460154
KY49 181755Z AUTO 18005KT 10SM CLR 24/15 A3006 RMK AO2 6//// T02410153
KY49 181735Z AUTO 20006KT 10SM CLR 24/15 A3006 RMK AO2 T02400150
KY49 181715Z AUTO 19006KT 10SM CLR 24/15 A3006 RMK AO2 T02400151
KY49 181655Z AUTO 18004KT 10SM CLR 24/15 A3007 RMK AO2 T02400152
KY49 181640Z AUTO 18005KT 10SM CLR 24/15 A3007 RMK AO2 T02360148
KY49 181554Z AUTO 17006KT 10SM CLR 23/15 A3009 RMK AO2
KY49 181535Z AUTO 19007KT 10SM CLR 22/15 A3009 RMK AO2